Time;durP1;ratioP1;P1;durP2;ratioP2;P2;SDS_P1;SDS_P2;PMS_P1;PMS_P2;Temp;Humidity;BMP_temperature;BMP_pressure;BME280_temperature;BME280_humidity;BME280_pressure;Samples;Min_cycle;Max_cycle;Signal;HPM_P1;HPM_P2
2023/10/08 00:01:11;;;;;;;9.93;8.93;;;13.80;99.90;;;;;;5019028;28;20199;-79
2023/10/08 00:03:40;;;;;;;9.47;8.47;;;13.70;99.90;;;;;;5017789;28;20778;-78
2023/10/08 00:06:12;;;;;;;10.60;9.43;;;13.70;99.90;;;;;;5018637;28;20207;-79
2023/10/08 00:08:39;;;;;;;9.73;8.73;;;13.70;99.90;;;;;;5027917;28;20665;-79
2023/10/08 00:11:07;;;;;;;9.47;8.33;;;13.70;99.90;;;;;;5016011;28;20197;-79
2023/10/08 00:13:39;;;;;;;9.80;8.80;;;13.70;99.90;;;;;;5019349;28;20244;-79
2023/10/08 00:16:09;;;;;;;9.53;8.60;;;13.80;99.90;;;;;;5029442;28;20207;-78
2023/10/08 00:18:37;;;;;;;9.50;8.57;;;13.80;99.90;;;;;;5031000;28;20211;-79
2023/10/08 00:21:16;;;;;;;11.23;8.90;;;13.80;99.90;;;;;;5020055;28;20208;-79
2023/10/08 00:23:50;;;;;;;10.80;9.10;;;13.80;99.90;;;;;;5019649;28;20276;-79
2023/10/08 00:26:27;;;;;;;10.40;9.07;;;13.70;99.90;;;;;;5028399;28;20254;-79
2023/10/08 00:28:57;;;;;;;9.27;8.37;;;13.70;99.90;;;;;;5019628;28;20199;-78
2023/10/08 00:31:30;;;;;;;10.87;9.17;;;13.60;99.90;;;;;;5016494;28;20192;-79
2023/10/08 00:33:57;;;;;;;9.50;8.50;;;13.60;99.90;;;;;;5015630;28;20221;-78
2023/10/08 00:36:24;;;;;;;9.53;8.30;;;13.60;99.90;;;;;;5017856;28;20626;-79
2023/10/08 00:38:53;;;;;;;8.93;8.03;;;13.60;99.90;;;;;;5018378;28;20201;-78
2023/10/08 00:41:22;;;;;;;9.00;8.20;;;13.70;99.90;;;;;;5021131;28;20197;-78
2023/10/08 00:43:51;;;;;;;9.83;8.53;;;13.70;99.90;;;;;;5015012;28;20270;-79
2023/10/08 00:46:23;;;;;;;8.87;8.00;;;13.70;99.90;;;;;;5024257;28;20197;-78
2023/10/08 00:48:54;;;;;;;9.57;8.57;;;13.80;99.90;;;;;;5018275;28;20200;-79
2023/10/08 00:51:32;;;;;;;9.23;8.33;;;13.80;99.90;;;;;;5025806;28;20204;-78
2023/10/08 00:54:05;;;;;;;8.87;7.97;;;13.90;99.90;;;;;;5021775;28;20212;-78
2023/10/08 00:56:49;;;;;;;8.77;7.87;;;13.90;99.90;;;;;;5017793;28;20682;-79
2023/10/08 00:59:20;;;;;;;9.50;7.80;;;13.90;99.90;;;;;;5015123;28;20197;-79
2023/10/08 01:01:52;;;;;;;8.67;7.60;;;13.90;99.90;;;;;;5016776;28;20622;-79
2023/10/08 01:04:22;;;;;;;8.53;7.73;;;13.90;99.90;;;;;;5020727;28;20221;-79
2023/10/08 01:06:54;;;;;;;8.93;8.03;;;13.90;99.90;;;;;;5030453;28;20239;-79
2023/10/08 01:09:27;;;;;;;8.37;7.57;;;13.90;99.90;;;;;;5022151;28;20229;-79
2023/10/08 01:12:08;;;;;;;8.53;7.63;;;14.00;99.90;;;;;;5023106;28;20232;-79
2023/10/08 01:14:36;;;;;;;9.50;8.13;;;13.90;99.90;;;;;;5026387;28;20216;-79
2023/10/08 01:17:06;;;;;;;8.00;7.20;;;13.90;99.90;;;;;;5019775;28;20196;-79
2023/10/08 01:19:38;;;;;;;9.63;7.60;;;13.90;99.90;;;;;;5017562;28;20411;-79
2023/10/08 01:22:08;;;;;;;9.63;8.20;;;13.90;99.90;;;;;;5033506;28;20198;-79
2023/10/08 01:24:35;;;;;;;8.40;7.50;;;13.80;99.90;;;;;;5031788;28;20764;-79
2023/10/08 01:27:04;;;;;;;9.50;7.77;;;13.70;99.90;;;;;;5033127;28;20741;-78
2023/10/08 01:29:31;;;;;;;8.50;7.60;;;13.70;99.90;;;;;;5023514;28;20248;-79
2023/10/08 01:31:58;;;;;;;8.40;7.60;;;13.60;99.90;;;;;;5022959;28;20255;-80
2023/10/08 01:34:30;;;;;;;8.20;7.40;;;13.50;99.90;;;;;;5042115;22;20237;-76
2023/10/08 01:37:03;;;;;;;9.53;8.63;;;13.50;99.90;;;;;;5020969;28;20207;-78
2023/10/08 01:39:32;;;;;;;8.97;8.07;;;13.50;99.90;;;;;;5034206;28;20220;-77
2023/10/08 01:41:59;;;;;;;9.13;8.23;;;13.40;99.90;;;;;;5023398;28;20201;-78
2023/10/08 01:44:28;;;;;;;8.97;8.07;;;13.40;99.90;;;;;;5018784;28;20219;-77
2023/10/08 01:46:57;;;;;;;9.93;7.77;;;13.40;99.90;;;;;;5024193;28;20209;-78
2023/10/08 01:49:32;;;;;;;8.67;7.80;;;13.40;99.90;;;;;;5007919;28;20194;-78
2023/10/08 01:51:59;;;;;;;8.67;7.77;;;13.30;99.90;;;;;;5008271;28;20575;-78
2023/10/08 01:54:26;;;;;;;8.47;7.67;;;13.30;99.90;;;;;;5007390;28;20220;-78
2023/10/08 01:56:55;;;;;;;9.73;8.43;;;13.30;99.90;;;;;;5008949;28;20205;-78
2023/10/08 01:59:21;;;;;;;8.87;7.97;;;13.20;99.90;;;;;;5006669;28;20205;-77
2023/10/08 02:01:48;;;;;;;9.60;8.60;;;13.20;99.90;;;;;;5007455;28;20288;-78
2023/10/08 02:04:16;;;;;;;9.00;8.10;;;13.20;99.90;;;;;;5006835;28;20625;-78
2023/10/08 02:06:45;;;;;;;12.30;8.73;;;13.10;99.90;;;;;;5008613;28;20216;-78
2023/10/08 02:09:13;;;;;;;9.10;8.27;;;13.10;99.90;;;;;;5005600;28;20297;-77
2023/10/08 02:11:49;;;;;;;10.57;8.50;;;13.10;99.90;;;;;;5008307;28;20193;-77
2023/10/08 02:14:18;;;;;;;10.70;8.80;;;13.10;99.90;;;;;;5007491;28;20220;-78
2023/10/08 02:16:45;;;;;;;9.07;8.17;;;13.10;99.90;;;;;;5008141;28;20196;-78
2023/10/08 02:19:12;;;;;;;9.27;8.07;;;13.00;99.90;;;;;;5007585;28;20691;-76
2023/10/08 02:21:41;;;;;;;8.27;7.47;;;13.00;99.90;;;;;;5007109;28;20196;-77
2023/10/08 02:24:11;;;;;;;9.10;7.70;;;13.00;99.90;;;;;;5006019;28;20297;-78
2023/10/08 02:26:37;;;;;;;9.63;8.60;;;13.00;99.90;;;;;;5006122;28;20626;-77
2023/10/08 02:29:10;;;;;;;9.23;8.20;;;12.90;99.90;;;;;;5006436;28;20196;-78
2023/10/08 02:31:38;;;;;;;8.83;8.03;;;12.90;99.90;;;;;;5006187;28;20204;-77
2023/10/08 02:34:07;;;;;;;9.80;8.30;;;12.90;99.90;;;;;;5007405;28;20231;-77
2023/10/08 02:36:36;;;;;;;8.87;8.07;;;12.90;99.90;;;;;;5004873;28;20201;-76
2023/10/08 02:39:07;;;;;;;8.87;8.07;;;12.80;99.90;;;;;;5004194;28;20202;-76
2023/10/08 02:41:33;;;;;;;9.80;8.80;;;12.80;99.90;;;;;;5013841;28;20722;-77
2023/10/08 02:44:00;;;;;;;9.03;7.87;;;12.80;99.90;;;;;;5014451;28;20664;-78
2023/10/08 02:46:29;;;;;;;9.17;8.27;;;12.80;99.90;;;;;;5003632;28;20235;-78
2023/10/08 02:48:58;;;;;;;8.43;7.67;;;12.70;99.90;;;;;;4995455;28;20201;-75
2023/10/08 02:51:25;;;;;;;8.87;7.97;;;12.70;99.90;;;;;;5009454;28;20862;-78
2023/10/08 02:53:52;;;;;;;8.83;8.00;;;12.70;99.90;;;;;;4994395;28;20232;-77
2023/10/08 02:56:19;;;;;;;9.93;8.70;;;12.60;99.90;;;;;;4994536;28;20276;-79
2023/10/08 02:58:47;;;;;;;8.33;7.63;;;12.60;99.90;;;;;;4992744;28;20240;-77
2023/10/08 03:01:14;;;;;;;8.80;8.00;;;12.50;99.90;;;;;;4993302;28;20192;-78
2023/10/08 03:03:42;;;;;;;8.30;7.50;;;12.50;99.90;;;;;;4994307;28;20215;-78
2023/10/08 03:06:14;;;;;;;8.80;7.90;;;12.50;99.90;;;;;;4994500;28;20214;-78
2023/10/08 03:08:42;;;;;;;8.33;7.50;;;12.40;99.90;;;;;;4994538;28;20189;-77
2023/10/08 03:11:16;;;;;;;9.47;8.27;;;12.30;99.90;;;;;;4990456;28;20701;-76
2023/10/08 03:13:51;;;;;;;8.37;7.50;;;12.30;99.90;;;;;;5004420;28;20228;-77
2023/10/08 03:16:27;;;;;;;8.60;7.80;;;12.20;99.90;;;;;;4993442;28;20204;-76
2023/10/08 03:18:57;;;;;;;8.60;7.80;;;12.20;99.90;;;;;;4994792;28;20248;-77
2023/10/08 03:21:48;;;;;;;8.70;7.80;;;12.10;99.90;;;;;;4992244;28;20203;-77
2023/10/08 03:24:29;;;;;;;8.03;7.23;;;12.00;99.90;;;;;;5006844;28;20226;-77
2023/10/08 03:27:05;;;;;;;8.77;7.97;;;12.00;99.90;;;;;;4993865;28;20213;-77
2023/10/08 03:29:40;;;;;;;8.63;7.80;;;12.00;99.90;;;;;;4992746;28;20645;-76
2023/10/08 03:32:13;;;;;;;9.73;8.00;;;11.90;99.90;;;;;;4992377;28;20210;-76
2023/10/08 03:34:43;;;;;;;9.50;8.20;;;11.90;99.90;;;;;;5010115;28;20270;-76
2023/10/08 03:37:19;;;;;;;9.27;8.20;;;11.80;99.90;;;;;;4994408;28;20486;-76
2023/10/08 03:40:01;;;;;;;9.60;8.57;;;11.80;99.90;;;;;;4993576;28;20231;-76
2023/10/08 03:42:34;;;;;;;8.50;7.73;;;11.80;99.90;;;;;;4994618;28;20207;-76
2023/10/08 03:45:10;;;;;;;9.60;8.63;;;11.80;99.90;;;;;;5005571;28;20642;-78
2023/10/08 03:47:38;;;;;;;11.80;9.03;;;11.70;99.90;;;;;;4993196;28;20202;-76
2023/10/08 03:50:09;;;;;;;10.03;8.10;;;11.70;99.90;;;;;;4993217;28;20211;-78
2023/10/08 03:52:38;;;;;;;8.77;7.90;;;11.70;99.90;;;;;;4993051;28;20205;-77
2023/10/08 03:55:21;;;;;;;8.47;7.50;;;11.60;99.90;;;;;;4993171;28;20313;-77
2023/10/08 03:57:56;;;;;;;8.90;8.00;;;11.60;99.90;;;;;;5009422;28;20644;-76
2023/10/08 04:00:31;;;;;;;9.23;8.37;;;11.60;99.90;;;;;;4993273;28;20210;-77
2023/10/08 04:03:00;;;;;;;9.47;8.50;;;11.50;99.90;;;;;;4993240;28;20207;-78
2023/10/08 04:05:44;;;;;;;10.33;8.33;;;11.50;99.90;;;;;;4993073;28;20458;-78
2023/10/08 04:08:24;;;;;;;9.67;8.67;;;11.50;99.90;;;;;;4993776;28;20206;-77
2023/10/08 04:11:22;;;;;;;9.83;8.13;;;11.50;99.90;;;;;;5003480;28;20246;-77
2023/10/08 04:13:51;;;;;;;9.33;7.97;;;11.40;99.90;;;;;;4987904;28;20239;-78
2023/10/08 04:16:20;;;;;;;10.30;8.23;;;11.40;99.90;;;;;;4988331;28;20332;-77
2023/10/08 04:18:50;;;;;;;9.20;8.30;;;11.40;99.90;;;;;;4994149;28;20203;-77
2023/10/08 04:21:20;;;;;;;9.03;8.13;;;11.40;99.90;;;;;;4994809;28;20194;-77
2023/10/08 04:23:51;;;;;;;8.60;7.80;;;11.30;99.90;;;;;;4994249;28;20228;-78
2023/10/08 04:26:23;;;;;;;9.03;8.23;;;11.30;99.90;;;;;;4997546;28;20199;-76
2023/10/08 04:28:54;;;;;;;10.43;8.87;;;11.30;99.90;;;;;;4996717;28;20575;-78
2023/10/08 04:31:24;;;;;;;9.37;8.37;;;11.20;99.90;;;;;;4997084;28;20260;-76
2023/10/08 04:33:52;;;;;;;8.33;7.50;;;11.20;99.90;;;;;;4996905;28;20745;-76
2023/10/08 04:36:19;;;;;;;9.20;7.97;;;11.20;99.90;;;;;;4998333;28;20582;-77
2023/10/08 04:38:48;;;;;;;8.77;7.87;;;11.20;99.90;;;;;;4996880;28;20296;-78
2023/10/08 04:41:19;;;;;;;8.40;7.60;;;11.20;99.90;;;;;;4997193;28;20303;-77
2023/10/08 04:43:49;;;;;;;8.80;7.90;;;11.20;99.90;;;;;;5014736;28;20222;-76
2023/10/08 04:46:39;;;;;;;9.13;8.33;;;11.10;99.90;;;;;;4997567;28;20234;-77
2023/10/08 04:49:18;;;;;;;9.40;8.30;;;11.10;99.90;;;;;;4997647;28;20198;-78
2023/10/08 04:51:46;;;;;;;9.63;8.20;;;11.10;99.90;;;;;;4997023;28;20214;-78
2023/10/08 04:54:16;;;;;;;9.23;8.40;;;11.00;99.90;;;;;;4998480;28;20229;-78
2023/10/08 04:56:44;;;;;;;9.63;8.43;;;11.00;99.90;;;;;;4992018;28;20225;-78
2023/10/08 04:59:12;;;;;;;8.43;7.67;;;11.00;99.90;;;;;;4998309;28;20190;-76
2023/10/08 05:01:47;;;;;;;8.17;7.47;;;11.00;99.90;;;;;;4997540;28;20268;-76
2023/10/08 05:04:26;;;;;;;8.43;7.63;;;11.10;99.90;;;;;;4998120;28;20594;-76
2023/10/08 05:07:16;;;;;;;8.70;7.90;;;11.10;99.90;;;;;;5012524;28;20209;-77
2023/10/08 05:09:52;;;;;;;8.17;7.37;;;11.20;99.90;;;;;;5012938;28;20640;-78
2023/10/08 05:12:34;;;;;;;8.30;7.53;;;11.30;99.90;;;;;;4998118;28;20190;-77
2023/10/08 05:18:08;;;;;;;8.60;7.80;;;11.40;99.90;;;;;;4987746;28;20218;-77
2023/10/08 05:20:44;;;;;;;10.50;7.80;;;11.50;99.90;;;;;;5001639;28;20233;-76
2023/10/08 05:23:42;;;;;;;8.43;7.73;;;11.50;99.90;;;;;;4995567;28;20209;-76
2023/10/08 05:26:09;;;;;;;8.20;7.40;;;11.50;99.90;;;;;;5010025;28;20436;-75
2023/10/08 05:29:00;;;;;;;8.80;7.80;;;11.50;99.90;;;;;;4999595;28;20242;-76
2023/10/08 05:31:36;;;;;;;9.57;8.43;;;11.50;99.90;;;;;;4997782;28;20206;-75
2023/10/08 05:34:17;;;;;;;8.47;7.40;;;11.50;99.90;;;;;;4998774;28;20230;-75
2023/10/08 05:36:50;;;;;;;9.43;8.43;;;11.50;99.90;;;;;;4998587;28;20201;-80
2023/10/08 05:39:29;;;;;;;9.30;8.30;;;11.40;99.90;;;;;;4996777;28;20194;-77
2023/10/08 05:42:12;;;;;;;9.50;8.37;;;11.40;99.90;;;;;;5009719;28;20200;-79
2023/10/08 05:44:46;;;;;;;10.23;8.63;;;11.40;99.90;;;;;;4997464;28;20726;-78
2023/10/08 05:47:34;;;;;;;10.07;8.60;;;11.40;99.90;;;;;;4998463;28;20285;-77
2023/10/08 05:50:38;;;;;;;9.47;8.57;;;11.40;99.90;;;;;;5001443;28;20198;-77
2023/10/08 05:53:15;;;;;;;9.30;8.33;;;11.40;99.90;;;;;;5015438;28;20297;-77
2023/10/08 05:55:47;;;;;;;15.77;8.77;;;11.40;99.90;;;;;;4998789;28;20707;-76
2023/10/08 05:58:13;;;;;;;9.23;8.33;;;11.40;99.90;;;;;;4997271;28;20257;-77
2023/10/08 06:03:36;;;;;;;9.07;8.23;;;11.50;99.90;;;;;;5002173;28;20226;-77
2023/10/08 06:09:04;;;;;;;9.87;8.97;;;11.60;99.90;;;;;;4997718;28;20217;-76
2023/10/08 06:11:41;;;;;;;10.90;8.93;;;11.60;99.90;;;;;;5015949;28;20208;-76
2023/10/08 06:14:16;;;;;;;9.47;8.40;;;11.60;99.90;;;;;;5001183;28;20219;-77
2023/10/08 06:16:44;;;;;;;9.60;8.73;;;11.70;99.90;;;;;;4996950;28;20227;-76
2023/10/08 06:19:12;;;;;;;10.53;9.53;;;11.70;99.90;;;;;;4997505;28;20207;-78
2023/10/08 06:21:40;;;;;;;9.80;8.73;;;11.80;99.90;;;;;;4998565;28;20211;-77
2023/10/08 06:24:10;;;;;;;9.73;8.80;;;11.80;99.90;;;;;;4997827;28;20247;-78
2023/10/08 06:26:42;;;;;;;9.83;9.00;;;11.90;99.90;;;;;;4998442;28;20225;-77
2023/10/08 06:29:19;;;;;;;6.07;4.17;;;11.90;99.90;;;;;;4999446;28;20264;-78
2023/10/08 06:31:51;;;;;;;8.07;4.13;;;12.10;99.90;;;;;;4999048;28;20612;-76
2023/10/08 06:34:21;;;;;;;7.33;4.30;;;12.20;99.90;;;;;;4996140;28;20596;-76
2023/10/08 06:36:53;;;;;;;9.33;8.60;;;12.30;99.90;;;;;;4998501;28;20213;-77
2023/10/08 06:39:25;;;;;;;7.87;7.17;;;12.40;99.90;;;;;;5000391;28;20215;-78
2023/10/08 06:41:53;;;;;;;8.57;7.77;;;12.60;99.90;;;;;;4994460;28;20222;-79
2023/10/08 06:44:20;;;;;;;5.50;3.90;;;12.70;99.90;;;;;;4992577;28;20221;-79
2023/10/08 06:46:49;;;;;;;5.07;3.27;;;12.80;99.90;;;;;;4991598;28;20213;-78
2023/10/08 06:49:18;;;;;;;6.47;3.50;;;13.00;99.90;;;;;;4994009;28;20672;-79
2023/10/08 06:51:45;;;;;;;5.57;3.60;;;13.20;99.90;;;;;;4992280;28;20655;-78
2023/10/08 06:54:13;;;;;;;5.63;3.77;;;13.30;99.90;;;;;;4993601;28;20279;-77
2023/10/08 06:56:45;;;;;;;6.70;3.67;;;13.50;99.90;;;;;;4992377;28;20245;-77
2023/10/08 06:59:12;;;;;;;10.87;3.80;;;13.70;99.90;;;;;;5009037;28;20299;-78
2023/10/08 07:01:39;;;;;;;6.60;4.17;;;14.00;99.90;;;;;;4984044;28;20202;-79
2023/10/08 07:04:12;;;;;;;9.47;8.57;;;14.20;99.90;;;;;;4994014;28;20245;-78
2023/10/08 07:06:39;;;;;;;8.17;5.60;;;14.50;99.90;;;;;;4993646;28;20689;-78
2023/10/08 07:09:22;;;;;;;7.20;5.73;;;14.80;99.90;;;;;;4992547;28;20197;-77
2023/10/08 07:11:49;;;;;;;6.87;5.37;;;15.10;99.90;;;;;;4994105;28;20300;-77
2023/10/08 07:14:17;;;;;;;7.57;3.70;;;15.40;99.90;;;;;;4993086;28;20273;-79
2023/10/08 07:16:47;;;;;;;7.27;3.90;;;15.80;99.90;;;;;;4993542;28;20585;-79
2023/10/08 07:19:18;;;;;;;5.67;4.17;;;16.20;99.90;;;;;;4990591;28;20206;-79
2023/10/08 07:21:46;;;;;;;7.37;6.47;;;16.60;99.90;;;;;;5008431;28;20201;-79
2023/10/08 07:24:17;;;;;;;5.03;3.90;;;17.10;99.90;;;;;;4992238;28;20221;-80
2023/10/08 07:26:47;;;;;;;6.73;4.10;;;17.60;99.90;;;;;;4991637;28;20224;-79
2023/10/08 07:29:17;;;;;;;10.87;6.93;;;18.20;99.90;;;;;;4991938;28;20209;-78
2023/10/08 07:31:48;;;;;;;9.57;5.00;;;18.70;99.90;;;;;;4992832;28;20308;-80
2023/10/08 07:34:18;;;;;;;11.23;4.70;;;19.10;99.90;;;;;;4988480;28;20226;-78
2023/10/08 07:36:46;;;;;;;7.77;3.80;;;19.50;99.90;;;;;;4991088;28;20218;-81
2023/10/08 07:39:25;;;;;;;8.30;6.53;;;19.90;99.90;;;;;;4991189;28;20197;-80
2023/10/08 07:41:53;;;;;;;12.37;7.40;;;20.30;99.90;;;;;;4991043;28;20671;-80
2023/10/08 07:44:21;;;;;;;8.10;7.30;;;20.60;99.90;;;;;;4992457;28;20216;-80
2023/10/08 07:46:48;;;;;;;8.97;3.97;;;20.90;99.90;;;;;;4991388;28;20216;-80
2023/10/08 07:49:17;;;;;;;8.40;4.90;;;21.20;99.90;;;;;;4992596;28;20229;-81
2023/10/08 07:51:50;;;;;;;7.13;4.33;;;21.50;99.90;;;;;;4990242;28;20263;-80
2023/10/08 07:54:19;;;;;;;7.93;4.33;;;21.70;99.90;;;;;;4992295;28;20292;-80
2023/10/08 07:56:47;;;;;;;9.07;6.00;;;22.00;99.90;;;;;;4990560;28;20259;-80
2023/10/08 07:59:16;;;;;;;9.43;7.70;;;22.30;99.90;;;;;;4991372;28;20296;-81
2023/10/08 08:01:43;;;;;;;12.50;5.80;;;22.70;99.90;;;;;;4991990;28;20268;-79
2023/10/08 08:04:21;;;;;;;8.10;4.57;;;22.80;99.90;;;;;;4992598;28;20212;-79
2023/10/08 08:06:50;;;;;;;10.00;4.80;;;22.50;99.90;;;;;;4991814;28;20260;-81
2023/10/08 08:09:19;;;;;;;8.67;4.77;;;22.20;99.90;;;;;;4993088;28;20216;-83
2023/10/08 08:11:46;;;;;;;12.77;5.30;;;21.90;99.90;;;;;;4992646;28;20201;-83
2023/10/08 08:14:16;;;;;;;6.87;4.47;;;21.70;99.90;;;;;;4991570;28;20794;-84
2023/10/08 08:16:47;;;;;;;7.17;6.47;;;21.50;99.90;;;;;;4993144;28;20216;-82
2023/10/08 08:19:16;;;;;;;7.57;4.67;;;21.40;99.90;;;;;;4992072;28;20205;-80
2023/10/08 08:21:45;;;;;;;5.60;3.83;;;21.40;99.90;;;;;;4992149;28;20205;-80
2023/10/08 08:24:28;;;;;;;6.43;3.50;;;21.30;99.90;;;;;;4990940;28;20225;-80
2023/10/08 08:27:08;;;;;;;6.80;3.57;;;21.20;99.90;;;;;;4990756;28;20205;-80
2023/10/08 08:29:44;;;;;;;5.27;4.03;;;21.10;99.90;;;;;;4987974;28;20212;-80
2023/10/08 08:32:12;;;;;;;6.87;3.87;;;21.10;99.90;;;;;;4992549;28;20636;-79
2023/10/08 08:34:43;;;;;;;7.00;3.90;;;21.00;99.90;;;;;;4992562;28;20239;-82
2023/10/08 08:37:11;;;;;;;7.10;4.10;;;20.90;99.90;;;;;;4990702;28;20216;-82
2023/10/08 08:39:39;;;;;;;5.63;3.63;;;20.70;99.90;;;;;;4991184;28;20551;-80
2023/10/08 08:42:06;;;;;;;9.57;4.33;;;20.60;99.90;;;;;;4991311;28;20197;-81
2023/10/08 08:44:39;;;;;;;11.50;6.17;;;20.50;99.90;;;;;;4990575;28;20248;-82
2023/10/08 08:47:07;;;;;;;7.03;3.77;;;20.80;99.90;;;;;;5004379;28;20194;-80
2023/10/08 08:49:37;;;;;;;5.20;3.47;;;21.10;99.90;;;;;;4992088;28;20194;-78
2023/10/08 08:52:04;;;;;;;6.20;3.77;;;21.30;99.90;;;;;;5002050;28;20255;-81
2023/10/08 08:54:32;;;;;;;5.37;3.50;;;21.70;99.90;;;;;;4990708;28;20228;-79
2023/10/08 08:57:04;;;;;;;7.57;4.57;;;22.10;99.90;;;;;;4990915;28;20221;-82
2023/10/08 08:59:31;;;;;;;5.87;3.70;;;22.60;99.90;;;;;;4999185;28;20288;-83
2023/10/08 09:02:00;;;;;;;7.70;3.57;;;23.20;99.90;;;;;;4991851;28;20257;-82
2023/10/08 09:04:31;;;;;;;5.90;3.83;;;23.70;99.90;;;;;;4991084;28;20227;-82
2023/10/08 09:07:03;;;;;;;5.33;3.50;;;24.10;99.90;;;;;;4989999;28;20190;-82
2023/10/08 09:09:34;;;;;;;7.13;3.30;;;24.40;99.90;;;;;;4992394;28;20216;-80
2023/10/08 09:12:04;;;;;;;9.60;7.00;;;24.60;99.90;;;;;;4994989;28;20268;-82
2023/10/08 09:14:33;;;;;;;10.33;7.63;;;24.80;99.90;;;;;;5011054;28;20316;-83
2023/10/08 09:17:04;;;;;;;10.70;7.57;;;24.80;99.90;;;;;;4994836;28;20221;-83
2023/10/08 09:19:31;;;;;;;6.70;4.03;;;24.50;99.90;;;;;;5010508;28;20293;-82
2023/10/08 09:22:04;;;;;;;7.43;4.50;;;24.30;99.90;;;;;;4995003;28;20298;-81
2023/10/08 09:24:31;;;;;;;8.97;7.67;;;24.40;99.90;;;;;;4993958;28;20272;-84
2023/10/08 09:26:59;;;;;;;8.67;3.83;;;24.40;99.90;;;;;;4993738;28;20196;-81
2023/10/08 09:29:27;;;;;;;9.57;7.37;;;24.30;99.90;;;;;;5010747;28;20284;-80
2023/10/08 09:31:56;;;;;;;8.30;7.00;;;24.30;99.90;;;;;;4995850;28;20205;-82
2023/10/08 09:34:26;;;;;;;8.53;7.63;;;24.20;99.90;;;;;;4995686;28;20236;-77
2023/10/08 09:36:54;;;;;;;7.37;3.90;;;24.30;99.90;;;;;;4992997;28;20221;-78
2023/10/08 09:39:23;;;;;;;7.40;3.97;;;24.30;99.90;;;;;;4994045;28;20656;-78
2023/10/08 09:41:53;;;;;;;7.07;6.27;;;24.30;99.90;;;;;;4995007;28;20196;-80
2023/10/08 09:44:20;;;;;;;8.43;6.80;;;24.30;99.90;;;;;;4996470;28;20217;-79
2023/10/08 09:46:54;;;;;;;7.73;6.90;;;24.30;99.90;;;;;;4995107;28;20252;-78
2023/10/08 09:49:29;;;;;;;7.20;3.97;;;24.50;99.90;;;;;;4996548;28;20668;-81
2023/10/08 09:51:57;;;;;;;8.50;7.57;;;24.60;99.90;;;;;;5010689;28;20621;-82
2023/10/08 09:54:32;;;;;;;7.80;7.00;;;24.80;99.90;;;;;;4994292;28;20252;-82
2023/10/08 09:57:00;;;;;;;10.53;7.93;;;24.90;99.90;;;;;;5009439;28;20323;-82
2023/10/08 09:59:29;;;;;;;5.70;3.63;;;25.10;99.90;;;;;;4993588;28;20288;-84
2023/10/08 10:02:00;;;;;;;7.63;4.30;;;25.40;99.90;;;;;;4994856;28;20276;-82
2023/10/08 10:04:31;;;;;;;9.67;7.17;;;25.50;99.90;;;;;;4993985;28;20236;-85
2023/10/08 10:06:58;;;;;;;7.63;5.80;;;25.90;99.90;;;;;;4993804;28;20212;-83
2023/10/08 10:09:27;;;;;;;8.90;7.43;;;26.00;99.90;;;;;;4993840;28;20232;-82
2023/10/08 10:11:56;;;;;;;7.60;3.67;;;26.20;99.90;;;;;;4993753;28;20209;-82
2023/10/08 10:14:24;;;;;;;8.60;7.37;;;26.30;99.90;;;;;;4995201;28;20296;-80
2023/10/08 10:19:51;;;;;;;9.23;7.30;;;26.30;99.90;;;;;;5088972;27;21065;-80
2023/10/08 10:22:28;;;;;;;9.80;8.00;;;26.20;99.90;;;;;;5078646;28;20190;-80
2023/10/08 10:24:55;;;;;;;8.47;7.57;;;26.30;99.90;;;;;;5077987;28;20247;-80
2023/10/08 10:27:23;;;;;;;11.40;7.53;;;26.30;99.90;;;;;;5066453;28;20252;-84
2023/10/08 10:29:50;;;;;;;7.53;4.20;;;26.40;99.90;;;;;;5065146;28;20203;-80
2023/10/08 10:32:18;;;;;;;11.67;8.10;;;26.40;99.80;;;;;;5062281;22;20232;-84
2023/10/08 10:34:51;;;;;;;8.10;7.30;;;26.50;99.90;;;;;;5025180;28;20625;-83
2023/10/08 10:37:20;;;;;;;9.83;7.70;;;26.40;99.80;;;;;;5021533;28;20296;-84
2023/10/08 10:39:55;;;;;;;9.70;6.37;;;26.40;99.80;;;;;;5033137;28;20203;-83
2023/10/08 10:42:23;;;;;;;8.50;4.57;;;26.30;99.90;;;;;;5013912;28;20212;-84
2023/10/08 10:44:55;;;;;;;8.20;4.07;;;26.30;99.30;;;;;;5001211;28;20224;-83
2023/10/08 10:47:27;;;;;;;6.53;4.00;;;26.30;98.80;;;;;;5005019;28;20248;-83
2023/10/08 10:50:18;;;;;;;9.27;5.37;;;26.30;98.60;;;;;;4998871;28;20204;-83
2023/10/08 10:52:51;;;;;;;9.33;6.33;;;26.30;98.20;;;;;;4997016;28;20704;-83
2023/10/08 10:55:22;;;;;;;9.03;7.17;;;26.30;98.20;;;;;;5006069;28;20196;-83
2023/10/08 10:58:11;;;;;;;11.07;6.40;;;26.50;98.80;;;;;;5007794;28;20226;-83
2023/10/08 11:00:56;;;;;;;10.60;6.13;;;26.60;98.40;;;;;;5008105;28;20211;-82
2023/10/08 11:03:24;;;;;;;9.50;7.70;;;26.80;98.30;;;;;;4998875;28;20268;-83
2023/10/08 11:05:59;;;;;;;15.00;8.30;;;26.90;98.00;;;;;;5003700;28;20672;-84
2023/10/08 11:08:34;;;;;;;9.27;7.40;;;26.90;97.80;;;;;;5005681;28;20201;-84
2023/10/08 11:11:05;;;;;;;9.70;7.03;;;27.00;97.70;;;;;;5005623;28;20590;-82
2023/10/08 11:13:38;;;;;;;10.10;7.50;;;27.10;97.10;;;;;;4997077;28;20202;-82
2023/10/08 11:16:07;;;;;;;12.03;8.43;;;27.30;97.40;;;;;;5015855;28;20208;-81
2023/10/08 11:18:50;;;;;;;11.10;6.37;;;27.40;98.00;;;;;;5000253;28;20308;-83
2023/10/08 11:21:23;;;;;;;9.73;4.80;;;27.60;97.30;;;;;;5005864;28;20201;-79
2023/10/08 11:23:55;;;;;;;11.90;6.30;;;27.60;97.40;;;;;;5015457;28;20196;-81
2023/10/08 11:26:39;;;;;;;8.97;6.63;;;27.60;96.60;;;;;;5008777;28;20255;-82
2023/10/08 11:29:14;;;;;;;12.67;7.17;;;27.40;97.20;;;;;;5006565;28;20224;-80
2023/10/08 11:31:42;;;;;;;9.23;6.83;;;27.20;97.70;;;;;;4984725;28;20221;-80
2023/10/08 11:34:13;;;;;;;10.77;6.17;;;27.10;98.20;;;;;;4981200;28;20205;-83
2023/10/08 11:36:52;;;;;;;10.27;5.50;;;27.00;98.30;;;;;;4984534;28;20208;-81
2023/10/08 11:39:22;;;;;;;8.43;6.17;;;26.80;97.30;;;;;;4992057;28;20267;-85
2023/10/08 11:42:06;;;;;;;8.53;3.60;;;26.70;97.50;;;;;;4993057;28;20217;-82
2023/10/08 11:44:43;;;;;;;9.60;3.83;;;26.60;97.80;;;;;;4986106;28;20198;-83
2023/10/08 11:47:20;;;;;;;8.30;3.87;;;26.50;98.30;;;;;;4995088;28;20197;-83
2023/10/08 11:49:50;;;;;;;6.97;4.00;;;26.50;98.70;;;;;;4989035;28;20287;-82
2023/10/08 11:52:21;;;;;;;11.50;7.10;;;26.50;98.90;;;;;;4993506;28;20236;-83
2023/10/08 11:54:48;;;;;;;8.33;7.47;;;26.50;98.80;;;;;;4993799;28;20229;-82
2023/10/08 11:57:21;;;;;;;7.50;6.70;;;26.50;98.40;;;;;;4985961;28;20204;-83
2023/10/08 11:59:48;;;;;;;8.50;7.60;;;26.50;98.40;;;;;;4994547;28;20220;-85
2023/10/08 12:02:16;;;;;;;8.10;7.10;;;26.40;98.20;;;;;;5003266;28;20213;-85
2023/10/08 12:04:44;;;;;;;10.20;6.60;;;26.40;98.50;;;;;;4997274;28;20201;-85
2023/10/08 12:07:18;;;;;;;7.47;6.57;;;26.40;98.70;;;;;;4986409;28;20205;-86
2023/10/08 12:10:02;;;;;;;6.67;3.60;;;26.50;98.70;;;;;;4989305;28;20200;-85
2023/10/08 12:12:30;;;;;;;8.03;4.40;;;26.40;98.80;;;;;;5001416;28;20225;-82
2023/10/08 12:14:59;;;;;;;6.17;3.40;;;26.30;98.90;;;;;;4991255;28;20548;-85
2023/10/08 12:17:37;;;;;;;5.87;3.87;;;26.30;98.20;;;;;;4994472;28;20193;-85
2023/10/08 12:20:22;;;;;;;7.30;3.37;;;26.30;98.40;;;;;;4988198;28;20696;-83
2023/10/08 12:22:50;;;;;;;10.03;5.03;;;26.30;98.10;;;;;;4996325;28;20227;-82
2023/10/08 12:25:18;;;;;;;11.57;8.20;;;26.10;98.50;;;;;;4995858;28;20205;-83
2023/10/08 12:27:45;;;;;;;12.17;8.20;;;25.90;99.30;;;;;;4994476;28;20575;-85
2023/10/08 12:30:12;;;;;;;8.50;7.60;;;25.60;99.90;;;;;;4996816;28;20197;-84
2023/10/08 12:32:42;;;;;;;9.23;7.47;;;25.50;99.90;;;;;;4983386;28;20247;-83
2023/10/08 12:35:12;;;;;;;9.63;7.83;;;25.30;99.90;;;;;;4994776;28;20216;-84
2023/10/08 12:38:00;;;;;;;9.50;7.20;;;25.30;99.90;;;;;;4995555;28;20205;-87
2023/10/08 12:40:42;;;;;;;13.53;8.40;;;25.10;99.90;;;;;;4990400;28;20229;-84
2023/10/08 12:43:31;;;;;;;10.37;7.67;;;25.00;99.90;;;;;;4986422;28;20232;-83
2023/10/08 12:46:02;;;;;;;8.47;7.53;;;25.00;99.90;;;;;;5001571;28;20245;-83
2023/10/08 12:48:29;;;;;;;9.07;7.10;;;24.90;99.90;;;;;;4994583;28;20281;-81
2023/10/08 12:50:57;;;;;;;8.07;7.27;;;24.90;99.90;;;;;;4989214;28;20337;-81
2023/10/08 12:53:50;;;;;;;10.80;7.77;;;24.90;99.90;;;;;;4986507;28;20229;-84
2023/10/08 12:56:44;;;;;;;10.20;7.27;;;24.80;99.90;;;;;;5000904;28;20209;-85
2023/10/08 12:59:20;;;;;;;7.60;6.90;;;24.60;99.90;;;;;;4979901;28;20217;-82
2023/10/08 13:02:34;;;;;;;7.43;6.70;;;24.60;99.90;;;;;;4997554;28;20228;-84
2023/10/08 13:06:28;;;;;;;6.73;6.03;;;24.50;99.90;;;;;;4994353;28;20271;-84
2023/10/08 13:09:13;;;;;;;7.80;7.10;;;24.40;99.90;;;;;;4986114;28;20210;-82
2023/10/08 13:12:00;;;;;;;8.00;7.20;;;24.40;99.90;;;;;;4983290;28;20236;-82
2023/10/08 13:30:32;;;;;;;8.33;7.10;;;24.20;99.90;;;;;;4924408;28;20688;-79
2023/10/08 13:33:35;;;;;;;7.77;6.90;;;24.10;99.90;;;;;;4976652;28;20252;-84
2023/10/08 13:36:23;;;;;;;7.33;6.63;;;24.10;99.90;;;;;;4948936;29;20598;-82
2023/10/08 13:42:39;;;;;;;8.00;7.20;;;24.20;99.90;;;;;;4982303;28;20598;-84
2023/10/08 13:50:12;;;;;;;8.03;7.03;;;24.30;99.90;;;;;;4989932;28;20203;-86